メインページ
METAR-TAF:

METAR-TAF

空港 :

イーラーム, イラン

緯度: 33-35-09N, 経度: 046-24-20E, 海抜: 1334m

現時点の気象観測

当レポートは22分前の04:00(UTC)に作成
南東の風 10kt
気温 13°C
湿度 82%
気圧 1004 hPa
視程: 8000m
高度2500ftの雲はほとんどない, 積乱雲.
高度3500ftの雲は散在している
高度7000ftの曇り

METAR: OICI 250400Z 14010KT 8000 FEW025CB SCT035 OVC070 13/10 Q1003 A2964

時間: 08:52 (04:22 UTC)

予報

当レポートは5時間22分前の23:00(UTC)に作成
予報は25日の 00時(UTC)から 26日の 06時(UTC)まで有効
東/南東の風 12kt
視程: 5000m
高度2500ftの雲はほとんどない, 積乱雲.
高度3000ftの雲は散在している
高度7000ftの曇り
25日の 00時(UTC)から 25日の 03時(UTC)まで一時的に
南/南東の風 18kt
視程: 2000m
激しい雷雨, 雨
25日の 06時(UTC)から 25日の 15時(UTC)まで一時的に
南東の風 14kt、最大24ktの突風を伴う
視程: 2000m
激しい雷雨, 雨
25日の 18時(UTC)から 25日の 20時(UTC)まで徐々に
東/南東の風 8kt
高度3000ftの雲はほとんどない, 積乱雲.
高度3500ftの雲は散在している
高度10000ftの千切れ雲あり
25日の 18時(UTC)から 25日の 24時(UTC)まで一時的に
高度3000ftの雲はほとんどない, 積乱雲.
高度3500ftの雲は散在している
高度10000ftの千切れ雲あり

TAF: OICI 242300Z 2500/2606 12012KT 5000 RA FEW025CB SCT030 OVC070 TEMPO 2500/2503 16018KT 2000 TSRA TEMPO 2506/2515 14014G24KT 2000 TSRA BECMG 2518/2520 12008KT FEW030CB SCT035 BKN100 TEMPO 2518/2524 FEW030CB SCT035 BKN100

4,000以上の空港の気象観測と天気予報(METAR報とTAF報)

利用可能な観測所は地図上に黄色い丸と赤い丸で示す。

丸の上にカーソルを重ねると観測所名を参照できる。

次にクリックすると気象観測と天気予報を参照できる。

マップの切り替え:黒色「×」印の緑ボタンをクリックして拡大、「-」印の緑ボタンをクリックして縮小、緑色の三角印をクリックして隣りの地図に切り替え


METAR-TAF: